Decoded Metar for PACM (SCAMMON BAY in AK, USA) (IATA:SCM) | Meteo·Mobile Aviation Weather
aviador You're here:

PACM Decoded Metar

SCAMMON BAY in AK, USA
Report Time2018-12-17 13:56:00
UTC Time2018-12-17 14:20:23
Flight Rules vfr VFR
Wind030° at 05 kt
W.Decomp.*RWY 10: 0.7 kt HW 5 kt LCW
W.Rank030° ranks 32
Current wind is below 030° avg. (7.9)
Visibility9999 m
Phenomena:Light Snow
Clouds:Few 023 Hf
Overcast 034 Hf
Expected CloudBase > 800 ft AGL from Temp-Dew spread
Ceiling3,400 ft
Temp-16°C (ISA -31)
Dew Point-18°C (85% RH)
AAT-21.3°C
QNH995 hPa
Density Alt-3,268 ft
Elevation13 ft
Report Wrong Elevation
Raw Report
PACM 171356Z AUTO 03005KT 7SM -SN FEW023 OVC034 M16/M18 A2938 RMK
AO2 WSHFT 1254 SLP946 P0000 T11611183 FZRANO=

Extra information for PACM:More info

Metar Taf Metar & Taf Last 4 Metars F.Rules Stats Wind Profile Meteogram Temp Stats Airport Information Weather charts Add Link Nearby VenuesMetar ALERT Operation Metar Decoded Social comments

AIRNAV info for PACM